createdAt,value
2023-03-11T00:01:12.323Z,3.88
2023-03-11T00:03:41.200Z,3.99
2023-03-11T00:06:09.840Z,3.90
2023-03-11T00:08:38.387Z,3.97
2023-03-11T00:11:07.056Z,3.91
2023-03-11T00:13:36.894Z,3.91
2023-03-11T00:16:08.043Z,3.82
2023-03-11T00:18:36.655Z,3.89
2023-03-11T00:21:05.820Z,3.88
2023-03-11T00:23:35.624Z,3.85
2023-03-11T00:26:04.213Z,3.88
2023-03-11T00:28:34.389Z,3.81
2023-03-11T00:31:04.390Z,3.85
2023-03-11T00:33:34.288Z,3.83
2023-03-11T00:36:02.959Z,3.91
2023-03-11T00:38:31.552Z,3.85
2023-03-11T00:41:01.700Z,3.88
2023-03-11T00:43:33.106Z,3.85
2023-03-11T00:46:01.723Z,3.90
2023-03-11T00:48:30.271Z,3.81
2023-03-11T00:51:00.157Z,3.86
2023-03-11T00:53:29.007Z,3.95
2023-03-11T00:55:57.677Z,3.92
2023-03-11T00:58:28.214Z,3.82
2023-03-11T01:00:58.457Z,3.80
2023-03-11T01:03:26.970Z,3.87
2023-03-11T01:05:55.455Z,3.85
2023-03-11T01:08:27.732Z,3.88
2023-03-11T01:10:56.353Z,3.88
2023-03-11T01:13:25.219Z,3.87
2023-03-11T01:15:54.396Z,3.72
2023-03-11T01:18:23.367Z,3.70
2023-03-11T01:20:52.305Z,3.67
2023-03-11T01:23:23.278Z,3.67
2023-03-11T01:25:53.536Z,3.76
2023-03-11T01:28:22.068Z,3.65
2023-03-11T01:30:50.725Z,3.68
2023-03-11T01:33:20.964Z,3.61
2023-03-11T01:35:50.209Z,3.67
2023-03-11T01:38:18.760Z,3.58
2023-03-11T01:40:50.572Z,3.68
2023-03-11T01:43:54.566Z,3.64
2023-03-11T01:46:29.330Z,3.68
2023-03-11T01:49:00.281Z,3.75
2023-03-11T01:51:36.739Z,3.82
2023-03-11T01:54:11.602Z,3.63
2023-03-11T01:56:44.016Z,3.56
2023-03-11T01:59:21.090Z,3.62
2023-03-11T02:02:00.772Z,3.60
2023-03-11T02:04:30.532Z,3.46
2023-03-11T02:06:59.296Z,3.57
2023-03-11T02:09:28.132Z,3.61
2023-03-11T02:11:58.598Z,3.64
2023-03-11T02:14:31.230Z,3.62
2023-03-11T02:17:01.790Z,3.62
2023-03-11T02:19:47.977Z,3.56
2023-03-11T02:22:17.890Z,3.53
2023-03-11T02:24:56.926Z,3.56
2023-03-11T02:27:29.666Z,3.51
2023-03-11T02:30:01.673Z,3.46
2023-03-11T02:32:33.436Z,3.50
2023-03-11T02:35:02.088Z,3.41
2023-03-11T02:37:30.883Z,3.41
2023-03-11T02:40:45.793Z,3.42
2023-03-11T02:43:20.840Z,3.42
2023-03-11T02:45:50.998Z,3.50
2023-03-11T02:48:21.971Z,3.49
2023-03-11T02:50:50.578Z,3.69
2023-03-11T02:53:20.948Z,3.63
2023-03-11T02:55:49.464Z,3.51
2023-03-11T02:58:19.335Z,3.58
2023-03-11T03:00:48.208Z,3.54
2023-03-11T03:03:16.988Z,3.51
2023-03-11T03:05:45.964Z,3.35
2023-03-11T03:08:14.971Z,3.36
2023-03-11T03:10:43.902Z,3.32
2023-03-11T03:13:12.432Z,3.33
2023-03-11T03:15:42.474Z,3.48
2023-03-11T03:18:11.012Z,3.52
2023-03-11T03:20:39.667Z,3.41
2023-03-11T03:23:08.330Z,3.37
2023-03-11T03:25:37.160Z,3.38
2023-03-11T03:28:09.307Z,3.49
2023-03-11T03:30:42.659Z,3.48
2023-03-11T03:33:12.008Z,3.47
2023-03-11T03:35:45.453Z,3.44
2023-03-11T03:38:36.581Z,3.38
2023-03-11T03:41:05.873Z,3.25
2023-03-11T03:43:36.538Z,3.17
2023-03-11T03:46:07.672Z,3.27
2023-03-11T03:48:41.647Z,3.25
2023-03-11T03:51:13.920Z,3.11
2023-03-11T03:53:48.149Z,3.06
2023-03-11T03:56:18.797Z,3.09
2023-03-11T03:58:47.883Z,3.17
2023-03-11T04:01:18.010Z,3.24
2023-03-11T04:03:46.758Z,3.17
2023-03-11T04:06:21.083Z,3.21
2023-03-11T04:08:56.048Z,3.17
2023-03-11T04:11:29.286Z,3.13
2023-03-11T04:13:58.758Z,3.17
2023-03-11T04:16:29.307Z,3.22
2023-03-11T04:19:04.705Z,3.17
2023-03-11T04:21:33.803Z,3.06
2023-03-11T04:24:03.029Z,2.97
2023-03-11T04:26:35.935Z,2.94
2023-03-11T04:29:05.396Z,2.86
2023-03-11T04:31:41.360Z,3.07
2023-03-11T04:34:11.209Z,3.10
2023-03-11T04:36:41.205Z,3.15
2023-03-11T04:39:10.788Z,3.03
2023-03-11T04:41:43.722Z,3.00
2023-03-11T04:44:17.143Z,2.84
2023-03-11T04:46:47.740Z,2.82
2023-03-11T04:49:17.187Z,2.85
2023-03-11T04:51:46.194Z,2.87
2023-03-11T04:54:16.681Z,2.86
2023-03-11T04:56:45.422Z,2.85
2023-03-11T04:59:14.023Z,2.69
2023-03-11T05:01:44.480Z,2.69
2023-03-11T05:04:15.585Z,2.65
2023-03-11T05:06:44.833Z,2.71
2023-03-11T05:09:15.212Z,2.64
2023-03-11T05:11:43.881Z,2.58
2023-03-11T05:14:13.736Z,2.57
2023-03-11T05:16:42.279Z,2.36
2023-03-11T05:19:25.915Z,2.30
2023-03-11T05:21:56.146Z,2.41
2023-03-11T05:24:27.087Z,2.51
2023-03-11T05:26:56.401Z,2.43
2023-03-11T05:29:26.779Z,2.41
2023-03-11T05:31:56.300Z,2.42
2023-03-11T05:34:25.499Z,2.32
2023-03-11T05:36:55.518Z,2.48
2023-03-11T05:39:24.972Z,2.46
2023-03-11T05:41:53.719Z,2.64
2023-03-11T05:44:22.331Z,2.64
2023-03-11T05:46:51.716Z,2.71
2023-03-11T05:49:21.582Z,2.49
2023-03-11T05:51:53.426Z,2.24
2023-03-11T05:54:23.873Z,2.33
2023-03-11T05:56:54.098Z,2.22
2023-03-11T05:59:23.312Z,2.28
2023-03-11T06:01:58.040Z,2.19
2023-03-11T06:04:26.728Z,2.25
2023-03-11T06:06:55.739Z,2.17
2023-03-11T06:09:28.092Z,2.23
2023-03-11T06:11:57.150Z,2.21
2023-03-11T06:14:31.782Z,2.17
2023-03-11T06:17:04.146Z,2.15
2023-03-11T06:19:33.077Z,2.18
2023-03-11T06:22:02.096Z,2.05
2023-03-11T06:24:32.995Z,1.95
2023-03-11T06:27:01.972Z,2.01
2023-03-11T06:29:31.902Z,2.00
2023-03-11T06:32:00.869Z,2.05
2023-03-11T06:34:29.648Z,2.12
2023-03-11T06:36:59.500Z,2.08
2023-03-11T06:39:28.317Z,2.12
2023-03-11T06:41:58.675Z,2.31
2023-03-11T06:44:28.684Z,2.65
2023-03-11T06:46:57.281Z,2.81
2023-03-11T06:49:26.002Z,2.83
2023-03-11T06:51:55.116Z,2.83
2023-03-11T06:54:24.436Z,2.81
2023-03-11T06:56:53.347Z,2.80
2023-03-11T06:59:23.418Z,2.88
2023-03-11T07:01:52.217Z,2.82
2023-03-11T07:04:20.844Z,2.89
2023-03-11T07:06:50.465Z,2.95
2023-03-11T07:09:25.249Z,2.90
2023-03-11T07:11:54.204Z,2.83
2023-03-11T07:14:30.354Z,3.02
2023-03-11T07:16:59.567Z,3.16
2023-03-11T07:19:33.871Z,3.14
2023-03-11T07:22:02.671Z,3.23
2023-03-11T07:24:31.217Z,3.21
2023-03-11T07:26:59.843Z,3.33
2023-03-11T07:29:29.988Z,3.48
2023-03-11T07:31:58.706Z,3.54
2023-03-11T07:34:27.395Z,3.43
2023-03-11T07:36:56.031Z,3.15
2023-03-11T07:39:24.642Z,3.18
2023-03-11T07:41:53.360Z,3.16
2023-03-11T07:44:22.592Z,3.34
2023-03-11T07:46:52.650Z,3.32
2023-03-11T07:49:21.183Z,3.60
2023-03-11T07:51:50.101Z,3.73
2023-03-11T07:54:18.729Z,3.75
2023-03-11T07:56:47.269Z,3.98
2023-03-11T07:59:15.876Z,4.04
2023-03-11T08:01:47.340Z,4.31
2023-03-11T08:04:18.353Z,4.38
2023-03-11T08:06:50.663Z,4.37
2023-03-11T08:09:19.665Z,4.28
2023-03-11T08:11:49.761Z,4.25
2023-03-11T08:14:18.759Z,4.12
2023-03-11T08:16:47.541Z,3.90
2023-03-11T08:19:17.658Z,4.17
2023-03-11T08:21:46.798Z,3.91
2023-03-11T08:24:16.164Z,4.04
2023-03-11T08:26:45.027Z,4.27
2023-03-11T08:29:13.757Z,4.64
2023-03-11T08:31:42.519Z,4.73
2023-03-11T08:34:13.477Z,4.65
2023-03-11T08:36:44.689Z,4.67
2023-03-11T08:39:13.476Z,4.93
2023-03-11T08:41:42.330Z,4.72
2023-03-11T08:44:11.146Z,4.67
2023-03-11T08:46:41.412Z,5.09
2023-03-11T08:49:10.452Z,5.11
2023-03-11T08:51:39.184Z,5.28
2023-03-11T08:54:09.832Z,5.12
2023-03-11T08:56:38.669Z,4.79
2023-03-11T08:59:08.482Z,4.70
2023-03-11T09:01:37.155Z,4.80
2023-03-11T09:04:06.366Z,4.88
2023-03-11T09:06:35.703Z,5.03
2023-03-11T09:09:05.013Z,4.16
2023-03-11T09:11:37.417Z,3.51
2023-03-11T09:14:06.832Z,2.58
2023-03-11T09:16:35.712Z,2.70
2023-03-11T09:19:07.521Z,2.82
2023-03-11T09:21:36.512Z,2.76
2023-03-11T09:24:06.819Z,2.76
2023-03-11T09:26:36.772Z,2.43
2023-03-11T09:29:05.425Z,2.38
2023-03-11T09:31:34.125Z,2.25
2023-03-11T09:34:02.886Z,2.32
2023-03-11T09:36:31.788Z,2.53
2023-03-11T09:39:01.911Z,2.70
2023-03-11T09:41:57.125Z,2.89
2023-03-11T09:44:38.346Z,2.95
2023-03-11T09:47:39.833Z,2.89
2023-03-11T09:50:22.300Z,2.99
2023-03-11T09:53:10.166Z,3.03
2023-03-11T09:55:45.543Z,3.22
2023-03-11T09:58:27.625Z,3.18
2023-03-11T10:00:57.630Z,3.24
2023-03-11T10:03:33.402Z,3.23
2023-03-11T10:06:15.394Z,3.08
2023-03-11T10:08:53.915Z,2.67
2023-03-11T10:11:53.097Z,2.79
2023-03-11T10:15:00.489Z,2.81
2023-03-11T10:17:54.912Z,2.67
2023-03-11T10:20:30.838Z,2.84
2023-03-11T10:23:14.774Z,3.09
2023-03-11T10:25:55.915Z,3.44
2023-03-11T10:28:33.048Z,4.12
2023-03-11T10:31:18.896Z,4.59
2023-03-11T10:33:53.544Z,4.64
2023-03-11T10:36:27.419Z,4.68
2023-03-11T10:38:57.492Z,5.01
2023-03-11T10:41:39.026Z,5.00
2023-03-11T10:44:15.075Z,5.50
2023-03-11T10:46:45.460Z,5.44
2023-03-11T10:49:18.023Z,5.48
2023-03-11T10:51:50.936Z,5.78
2023-03-11T10:54:28.881Z,5.74
2023-03-11T10:57:00.711Z,5.75
2023-03-11T10:59:34.384Z,5.67
2023-03-11T11:02:23.496Z,5.85
2023-03-11T11:05:08.512Z,5.98
2023-03-11T11:07:41.145Z,6.42
2023-03-11T11:10:21.240Z,6.24
2023-03-11T11:12:59.136Z,6.30
2023-03-11T11:15:31.392Z,6.62
2023-03-11T11:18:06.073Z,7.37
2023-03-11T11:20:36.056Z,7.96
2023-03-11T11:23:05.450Z,7.53
2023-03-11T11:25:38.237Z,7.39
2023-03-11T11:28:19.489Z,7.66
2023-03-11T11:30:58.583Z,7.40
2023-03-11T11:33:33.440Z,7.58
2023-03-11T11:36:05.461Z,6.93
2023-03-11T11:38:35.030Z,6.21
2023-03-11T11:41:06.680Z,5.91
2023-03-11T11:43:49.764Z,5.57
2023-03-11T11:46:30.261Z,5.07
2023-03-11T11:49:12.800Z,4.35
2023-03-11T11:51:49.281Z,3.97
2023-03-11T11:54:26.267Z,4.17
2023-03-11T11:56:57.207Z,3.96
2023-03-11T11:59:26.520Z,3.91
2023-03-11T12:02:08.718Z,3.99
2023-03-11T12:04:54.668Z,4.18
2023-03-11T12:08:00.086Z,4.34
2023-03-11T12:10:34.827Z,4.22
2023-03-11T12:13:55.790Z,4.30
2023-03-11T12:16:35.590Z,4.29
2023-03-11T12:19:16.520Z,4.62
2023-03-11T12:22:11.484Z,4.85
2023-03-11T12:25:02.927Z,4.78
2023-03-11T12:27:37.968Z,4.79
2023-03-11T12:30:15.964Z,5.16
2023-03-11T12:32:53.088Z,5.37
2023-03-11T12:35:27.789Z,5.51
2023-03-11T12:38:07.921Z,5.43
2023-03-11T12:41:01.529Z,5.41
2023-03-11T12:44:03.137Z,5.16
2023-03-11T12:47:18.676Z,5.48
2023-03-11T12:49:50.038Z,5.46
2023-03-11T12:52:29.236Z,5.57
2023-03-11T12:55:33.204Z,5.30
2023-03-11T12:58:49.523Z,5.37
2023-03-11T13:01:54.702Z,4.93
2023-03-11T13:04:41.440Z,4.85
2023-03-11T13:07:41.015Z,4.65
2023-03-11T13:10:38.934Z,4.70
2023-03-11T13:13:40.567Z,5.01
2023-03-11T13:16:39.623Z,5.39
2023-03-11T13:19:53.001Z,5.36
2023-03-11T13:23:16.099Z,5.41
2023-03-11T13:26:24.115Z,5.38
2023-03-11T13:29:41.182Z,5.26
2023-03-11T13:33:15.419Z,5.21
2023-03-11T13:36:05.232Z,5.40
2023-03-11T13:39:08.664Z,5.32
2023-03-11T13:41:43.563Z,5.36
2023-03-11T13:44:23.450Z,5.38
2023-03-11T13:46:59.671Z,5.44
2023-03-11T13:49:38.760Z,5.33
2023-03-11T13:52:16.135Z,5.27
2023-03-11T13:54:49.848Z,5.08
2023-03-11T13:57:39.058Z,4.93
2023-03-11T14:00:17.825Z,4.95
2023-03-11T14:02:51.509Z,5.27
2023-03-11T14:05:25.324Z,5.37
2023-03-11T14:07:55.603Z,5.23
2023-03-11T14:10:31.060Z,5.32
2023-03-11T14:13:17.847Z,5.24
2023-03-11T14:15:55.213Z,5.31
2023-03-11T14:18:37.793Z,5.22
2023-03-11T14:21:13.797Z,5.11
2023-03-11T14:23:46.107Z,5.06
2023-03-11T14:26:18.680Z,5.15
2023-03-11T14:28:52.372Z,4.90
2023-03-11T14:31:36.475Z,4.91
2023-03-11T14:34:15.667Z,4.64
2023-03-11T14:36:48.548Z,4.81
2023-03-11T14:39:32.737Z,4.84
2023-03-11T14:42:13.745Z,4.73
2023-03-11T14:44:48.680Z,4.48
2023-03-11T14:47:27.039Z,4.38
2023-03-11T14:49:57.187Z,4.18
2023-03-11T14:52:38.298Z,4.23
2023-03-11T14:55:15.505Z,4.31
2023-03-11T14:57:50.539Z,4.40
2023-03-11T15:00:25.669Z,4.57
2023-03-11T15:03:07.373Z,4.68
2023-03-11T15:05:46.738Z,4.66
2023-03-11T15:08:20.683Z,4.80
2023-03-11T15:11:24.317Z,4.79
2023-03-11T15:13:54.365Z,4.73
2023-03-11T15:16:31.445Z,4.84
2023-03-11T15:19:02.969Z,4.97
2023-03-11T15:21:31.571Z,5.15
2023-03-11T15:24:06.407Z,5.29
2023-03-11T15:26:38.253Z,5.02
2023-03-11T15:29:16.895Z,5.00
2023-03-11T15:31:47.632Z,4.70
2023-03-11T15:34:30.845Z,4.81
2023-03-11T15:37:19.270Z,4.65
2023-03-11T15:39:52.400Z,4.51
2023-03-11T15:42:25.616Z,4.57
2023-03-11T15:45:10.076Z,4.59
2023-03-11T15:47:40.752Z,4.43
2023-03-11T15:50:27.327Z,4.45
2023-03-11T15:53:00.146Z,4.27
2023-03-11T15:55:29.352Z,4.31
2023-03-11T15:58:08.021Z,4.25
2023-03-11T16:00:38.274Z,4.31
2023-03-11T16:03:08.219Z,4.15
2023-03-11T16:05:36.828Z,4.24
2023-03-11T16:08:05.846Z,4.31
2023-03-11T16:10:35.093Z,4.23
2023-03-11T16:13:03.731Z,4.34
2023-03-11T16:15:35.891Z,4.40
2023-03-11T16:18:08.786Z,4.42
2023-03-11T16:20:43.937Z,4.29
2023-03-11T16:23:19.342Z,4.29
2023-03-11T16:25:49.042Z,4.20
2023-03-11T16:28:18.650Z,4.26
2023-03-11T16:30:47.681Z,4.49
2023-03-11T16:33:17.865Z,4.59
2023-03-11T16:35:47.095Z,4.57
2023-03-11T16:38:17.166Z,4.37
2023-03-11T16:40:45.665Z,4.41
2023-03-11T16:43:15.409Z,4.20
2023-03-11T16:45:43.886Z,4.18
2023-03-11T16:48:12.389Z,4.18
2023-03-11T16:50:42.294Z,4.23
2023-03-11T16:53:11.608Z,4.24
2023-03-11T16:55:40.094Z,4.24
2023-03-11T16:58:08.655Z,4.20
2023-03-11T17:00:37.710Z,4.14
2023-03-11T17:03:07.090Z,4.15
2023-03-11T17:05:35.793Z,4.24
2023-03-11T17:08:06.586Z,4.22
2023-03-11T17:10:38.777Z,4.15
2023-03-11T17:13:07.802Z,4.29
2023-03-11T17:15:38.259Z,4.26
2023-03-11T17:18:07.233Z,4.13
2023-03-11T17:20:37.191Z,4.01
2023-03-11T17:23:07.168Z,4.06
2023-03-11T17:25:35.823Z,4.13
2023-03-11T17:28:04.377Z,3.97
2023-03-11T17:30:37.205Z,3.79
2023-03-11T17:33:06.278Z,3.72
2023-03-11T17:35:35.084Z,3.69
2023-03-11T17:38:03.733Z,3.63
2023-03-11T17:40:33.735Z,3.51
2023-03-11T17:43:02.362Z,3.56
2023-03-11T17:45:31.165Z,3.54
2023-03-11T17:47:59.945Z,3.56
2023-03-11T17:50:28.703Z,3.59
2023-03-11T17:52:57.698Z,3.67
2023-03-11T17:55:26.395Z,3.71
2023-03-11T17:57:56.356Z,3.66
2023-03-11T18:00:25.638Z,3.57
2023-03-11T18:02:54.223Z,3.57
2023-03-11T18:05:23.354Z,3.57
2023-03-11T18:07:52.054Z,3.53
2023-03-11T18:10:21.491Z,3.56
2023-03-11T18:12:50.869Z,3.54
2023-03-11T18:15:22.626Z,3.49
2023-03-11T18:17:51.322Z,3.56
2023-03-11T18:20:20.410Z,3.57
2023-03-11T18:22:49.195Z,3.54
2023-03-11T18:25:18.023Z,3.70
2023-03-11T18:27:46.749Z,3.79
2023-03-11T18:30:15.712Z,3.73
2023-03-11T18:32:45.871Z,3.62
2023-03-11T18:35:17.409Z,3.60
2023-03-11T18:37:46.714Z,3.63
2023-03-11T18:40:16.095Z,3.71
2023-03-11T18:42:44.788Z,3.46
2023-03-11T18:45:13.947Z,3.51
2023-03-11T18:47:42.480Z,3.54
2023-03-11T18:50:13.518Z,3.58
2023-03-11T18:52:42.027Z,3.57
2023-03-11T18:55:11.278Z,3.60
2023-03-11T18:57:43.115Z,3.53
2023-03-11T19:00:13.378Z,3.55
2023-03-11T19:02:41.981Z,3.69
2023-03-11T19:05:12.620Z,3.64
2023-03-11T19:07:41.504Z,3.69
2023-03-11T19:10:12.315Z,3.71
2023-03-11T19:12:42.604Z,3.58
2023-03-11T19:15:13.370Z,3.62
2023-03-11T19:17:42.054Z,3.56
2023-03-11T19:20:13.544Z,3.57
2023-03-11T19:22:42.294Z,3.57
2023-03-11T19:25:11.377Z,3.43
2023-03-11T19:27:40.347Z,3.36
2023-03-11T19:30:10.956Z,3.12
2023-03-11T19:32:39.530Z,2.93
2023-03-11T19:35:10.899Z,2.86
2023-03-11T19:37:41.384Z,2.80
2023-03-11T19:40:11.906Z,2.78
2023-03-11T19:42:40.636Z,2.80
2023-03-11T19:45:10.288Z,2.68
2023-03-11T19:47:39.979Z,2.51
2023-03-11T19:50:10.215Z,2.35
2023-03-11T19:52:40.211Z,1.95
2023-03-11T19:55:09.774Z,1.78
2023-03-11T19:57:38.549Z,1.63
2023-03-11T20:00:10.447Z,1.48
2023-03-11T20:02:39.142Z,1.29
2023-03-11T20:05:09.823Z,1.22
2023-03-11T20:07:38.394Z,1.15
2023-03-11T20:10:10.146Z,1.09
2023-03-11T20:12:40.225Z,1.06
2023-03-11T20:15:12.505Z,0.99
2023-03-11T20:17:41.042Z,0.91
2023-03-11T20:20:12.232Z,0.89
2023-03-11T20:22:41.025Z,0.87
2023-03-11T20:25:11.429Z,0.75
2023-03-11T20:27:40.060Z,0.67
2023-03-11T20:30:10.814Z,0.49
2023-03-11T20:32:39.726Z,0.37
2023-03-11T20:35:09.506Z,0.37
2023-03-11T20:37:38.182Z,0.31
2023-03-11T20:40:08.711Z,0.23
2023-03-11T20:42:39.857Z,0.09
2023-03-11T20:45:10.236Z,-0.08
2023-03-11T20:47:38.853Z,-0.03
2023-03-11T20:50:08.988Z,-0.01
2023-03-11T20:52:37.701Z,-0.06
2023-03-11T20:55:10.050Z,0.09
2023-03-11T20:57:41.445Z,0.20
2023-03-11T21:00:13.335Z,0.39
2023-03-11T21:02:44.255Z,0.57
2023-03-11T21:05:14.508Z,0.70
2023-03-11T21:07:43.173Z,0.76
2023-03-11T21:10:14.112Z,0.85
2023-03-11T21:12:44.203Z,0.88
2023-03-11T21:15:13.864Z,0.91
2023-03-11T21:17:42.737Z,0.97
2023-03-11T21:20:13.492Z,0.95
2023-03-11T21:22:42.330Z,0.97
2023-03-11T21:25:11.332Z,1.01
2023-03-11T21:27:40.185Z,0.95
2023-03-11T21:30:12.878Z,0.96
2023-03-11T21:32:41.650Z,1.03
2023-03-11T21:35:10.851Z,1.07
2023-03-11T21:37:39.717Z,1.10
2023-03-11T21:40:10.752Z,1.01
2023-03-11T21:42:39.389Z,0.99
2023-03-11T21:45:11.338Z,1.10
2023-03-11T21:47:40.041Z,1.23
2023-03-11T21:50:10.445Z,1.22
2023-03-11T21:52:39.012Z,1.40
2023-03-11T21:55:08.362Z,1.45
2023-03-11T21:57:36.950Z,1.42
2023-03-11T22:00:09.809Z,1.42
2023-03-11T22:02:39.878Z,1.42
2023-03-11T22:05:09.651Z,1.23
2023-03-11T22:07:38.233Z,1.23
2023-03-11T22:10:08.559Z,1.28
2023-03-11T22:12:37.504Z,1.23
2023-03-11T22:15:07.998Z,1.16
2023-03-11T22:17:37.164Z,1.09
2023-03-11T22:20:10.069Z,1.18
2023-03-11T22:22:39.021Z,1.16
2023-03-11T22:25:08.819Z,1.17
2023-03-11T22:27:38.513Z,1.23
2023-03-11T22:30:09.719Z,1.15
2023-03-11T22:32:38.321Z,1.02
2023-03-11T22:35:09.232Z,0.84
2023-03-11T22:37:37.851Z,0.87
2023-03-11T22:40:08.862Z,0.77
2023-03-11T22:42:38.677Z,0.73
2023-03-11T22:45:09.150Z,0.83
2023-03-11T22:47:37.783Z,0.78
2023-03-11T22:50:08.824Z,0.83
2023-03-11T22:52:37.368Z,0.95
2023-03-11T22:55:06.910Z,0.83
2023-03-11T22:57:38.786Z,0.99
2023-03-11T23:00:17.371Z,0.97
2023-03-11T23:02:46.745Z,1.04
2023-03-11T23:05:17.309Z,0.97
2023-03-11T23:07:46.056Z,0.91
2023-03-11T23:10:19.015Z,0.83
2023-03-11T23:12:49.431Z,0.95
2023-03-11T23:15:20.173Z,0.92
2023-03-11T23:17:48.809Z,0.82
2023-03-11T23:20:19.294Z,0.73
2023-03-11T23:22:47.866Z,0.64
2023-03-11T23:25:17.675Z,0.65
2023-03-11T23:27:47.397Z,0.62
2023-03-11T23:30:17.953Z,0.39
2023-03-11T23:32:46.966Z,0.26
2023-03-11T23:35:15.580Z,-0.06
2023-03-11T23:37:49.884Z,-0.03
2023-03-11T23:40:19.262Z,0.14
2023-03-11T23:42:47.828Z,0.22
2023-03-11T23:45:16.361Z,0.14
2023-03-11T23:47:44.960Z,0.22
2023-03-11T23:50:13.765Z,0.26
2023-03-11T23:52:42.797Z,0.26
2023-03-11T23:55:13.863Z,0.25
2023-03-11T23:57:42.416Z,0.27
